sensor_id;sensor_type;location;lat;lon;timestamp;P1;durP1;ratioP1;P2;durP2;ratioP2
19575;SDS011;41589;51.196;7.074;2023-05-01T00:04:38;0.80;;;0.80;;
19575;SDS011;41589;51.196;7.074;2023-05-01T00:09:38;0.80;;;0.80;;
19575;SDS011;41589;51.196;7.074;2023-05-01T00:14:39;0.90;;;0.90;;
19575;SDS011;41589;51.196;7.074;2023-05-01T00:19:40;0.80;;;0.80;;
19575;SDS011;41589;51.196;7.074;2023-05-01T00:24:41;0.80;;;0.80;;
19575;SDS011;41589;51.196;7.074;2023-05-01T00:29:41;0.90;;;0.90;;
19575;SDS011;41589;51.196;7.074;2023-05-01T00:34:42;0.87;;;0.77;;
19575;SDS011;41589;51.196;7.074;2023-05-01T00:39:45;0.90;;;0.90;;
19575;SDS011;41589;51.196;7.074;2023-05-01T00:44:45;1.30;;;1.20;;
19575;SDS011;41589;51.196;7.074;2023-05-01T00:49:45;0.80;;;0.80;;
19575;SDS011;41589;51.196;7.074;2023-05-01T00:54:46;1.40;;;1.17;;
19575;SDS011;41589;51.196;7.074;2023-05-01T00:59:51;0.83;;;0.83;;
19575;SDS011;41589;51.196;7.074;2023-05-01T01:04:51;0.97;;;0.80;;
19575;SDS011;41589;51.196;7.074;2023-05-01T01:10:04;0.80;;;0.80;;
19575;SDS011;41589;51.196;7.074;2023-05-01T01:20:54;0.90;;;0.90;;
19575;SDS011;41589;51.196;7.074;2023-05-01T01:26:03;0.80;;;0.80;;
19575;SDS011;41589;51.196;7.074;2023-05-01T01:31:17;0.90;;;0.90;;
19575;SDS011;41589;51.196;7.074;2023-05-01T01:36:27;0.87;;;0.87;;
19575;SDS011;41589;51.196;7.074;2023-05-01T01:41:37;0.80;;;0.80;;
19575;SDS011;41589;51.196;7.074;2023-05-01T01:46:39;0.80;;;0.80;;
19575;SDS011;41589;51.196;7.074;2023-05-01T01:51:41;0.90;;;0.90;;
19575;SDS011;41589;51.196;7.074;2023-05-01T01:56:44;0.80;;;0.80;;
19575;SDS011;41589;51.196;7.074;2023-05-01T02:01:45;0.90;;;0.90;;
19575;SDS011;41589;51.196;7.074;2023-05-01T02:06:48;0.80;;;0.80;;
19575;SDS011;41589;51.196;7.074;2023-05-01T02:11:48;0.80;;;0.80;;
19575;SDS011;41589;51.196;7.074;2023-05-01T02:16:50;0.90;;;0.90;;
19575;SDS011;41589;51.196;7.074;2023-05-01T02:21:52;0.90;;;0.90;;
19575;SDS011;41589;51.196;7.074;2023-05-01T02:26:56;0.80;;;0.80;;
19575;SDS011;41589;51.196;7.074;2023-05-01T02:32:02;1.00;;;1.00;;
19575;SDS011;41589;51.196;7.074;2023-05-01T02:37:06;0.83;;;0.83;;
19575;SDS011;41589;51.196;7.074;2023-05-01T02:42:10;0.90;;;0.90;;
19575;SDS011;41589;51.196;7.074;2023-05-01T02:47:15;0.80;;;0.80;;
19575;SDS011;41589;51.196;7.074;2023-05-01T02:52:19;0.80;;;0.80;;
19575;SDS011;41589;51.196;7.074;2023-05-01T02:57:26;0.80;;;0.80;;
19575;SDS011;41589;51.196;7.074;2023-05-01T03:02:26;0.70;;;0.70;;
19575;SDS011;41589;51.196;7.074;2023-05-01T03:07:27;0.77;;;0.77;;
19575;SDS011;41589;51.196;7.074;2023-05-01T03:12:33;0.80;;;0.80;;
19575;SDS011;41589;51.196;7.074;2023-05-01T03:17:34;0.80;;;0.80;;
19575;SDS011;41589;51.196;7.074;2023-05-01T03:22:34;0.93;;;0.93;;
19575;SDS011;41589;51.196;7.074;2023-05-01T03:27:35;0.70;;;0.70;;
19575;SDS011;41589;51.196;7.074;2023-05-01T03:32:35;0.80;;;0.80;;
19575;SDS011;41589;51.196;7.074;2023-05-01T03:37:37;0.77;;;0.77;;
19575;SDS011;41589;51.196;7.074;2023-05-01T03:42:37;0.80;;;0.80;;
19575;SDS011;41589;51.196;7.074;2023-05-01T03:47:44;0.80;;;0.80;;
19575;SDS011;41589;51.196;7.074;2023-05-01T03:52:45;0.80;;;0.80;;
19575;SDS011;41589;51.196;7.074;2023-05-01T03:57:46;1.67;;;1.00;;
19575;SDS011;41589;51.196;7.074;2023-05-01T04:02:47;0.80;;;0.80;;
19575;SDS011;41589;51.196;7.074;2023-05-01T04:07:52;0.90;;;0.90;;
19575;SDS011;41589;51.196;7.074;2023-05-01T04:12:52;0.87;;;0.87;;
19575;SDS011;41589;51.196;7.074;2023-05-01T04:17:53;0.90;;;0.90;;
19575;SDS011;41589;51.196;7.074;2023-05-01T04:22:55;1.00;;;0.90;;
19575;SDS011;41589;51.196;7.074;2023-05-01T04:27:57;0.77;;;0.77;;
19575;SDS011;41589;51.196;7.074;2023-05-01T04:32:57;0.90;;;0.90;;
19575;SDS011;41589;51.196;7.074;2023-05-01T04:37:58;0.87;;;0.87;;
19575;SDS011;41589;51.196;7.074;2023-05-01T04:42:59;0.80;;;0.80;;
19575;SDS011;41589;51.196;7.074;2023-05-01T04:47:59;0.83;;;0.83;;
19575;SDS011;41589;51.196;7.074;2023-05-01T04:53:00;0.90;;;0.90;;
19575;SDS011;41589;51.196;7.074;2023-05-01T04:58:00;0.80;;;0.80;;
19575;SDS011;41589;51.196;7.074;2023-05-01T05:03:03;0.97;;;0.87;;
19575;SDS011;41589;51.196;7.074;2023-05-01T05:08:04;0.70;;;0.70;;
19575;SDS011;41589;51.196;7.074;2023-05-01T05:13:13;1.27;;;0.97;;
19575;SDS011;41589;51.196;7.074;2023-05-01T05:18:13;0.80;;;0.80;;
19575;SDS011;41589;51.196;7.074;2023-05-01T05:23:14;0.73;;;0.73;;
19575;SDS011;41589;51.196;7.074;2023-05-01T05:28:14;1.10;;;1.00;;
19575;SDS011;41589;51.196;7.074;2023-05-01T05:33:16;0.77;;;0.77;;
19575;SDS011;41589;51.196;7.074;2023-05-01T05:38:16;0.87;;;0.87;;
19575;SDS011;41589;51.196;7.074;2023-05-01T05:43:19;0.80;;;0.80;;
19575;SDS011;41589;51.196;7.074;2023-05-01T05:48:20;0.90;;;0.90;;
19575;SDS011;41589;51.196;7.074;2023-05-01T05:53:20;0.80;;;0.80;;
19575;SDS011;41589;51.196;7.074;2023-05-01T05:58:22;0.70;;;0.70;;
19575;SDS011;41589;51.196;7.074;2023-05-01T06:03:23;0.80;;;0.80;;
19575;SDS011;41589;51.196;7.074;2023-05-01T06:08:26;0.73;;;0.73;;
19575;SDS011;41589;51.196;7.074;2023-05-01T06:13:27;0.80;;;0.80;;
19575;SDS011;41589;51.196;7.074;2023-05-01T06:18:27;0.80;;;0.80;;
19575;SDS011;41589;51.196;7.074;2023-05-01T06:23:29;0.70;;;0.70;;
19575;SDS011;41589;51.196;7.074;2023-05-01T06:28:47;0.80;;;0.80;;
19575;SDS011;41589;51.196;7.074;2023-05-01T06:33:48;0.80;;;0.80;;
19575;SDS011;41589;51.196;7.074;2023-05-01T06:39:02;0.77;;;0.77;;
19575;SDS011;41589;51.196;7.074;2023-05-01T06:44:04;0.70;;;0.70;;
19575;SDS011;41589;51.196;7.074;2023-05-01T06:49:05;1.00;;;1.00;;
19575;SDS011;41589;51.196;7.074;2023-05-01T06:54:05;0.80;;;0.80;;
19575;SDS011;41589;51.196;7.074;2023-05-01T06:59:06;0.70;;;0.70;;
19575;SDS011;41589;51.196;7.074;2023-05-01T07:04:06;0.77;;;0.77;;
19575;SDS011;41589;51.196;7.074;2023-05-01T07:09:07;0.80;;;0.80;;
19575;SDS011;41589;51.196;7.074;2023-05-01T07:14:07;0.70;;;0.70;;
19575;SDS011;41589;51.196;7.074;2023-05-01T07:19:08;1.00;;;0.90;;
19575;SDS011;41589;51.196;7.074;2023-05-01T07:24:08;0.80;;;0.80;;
19575;SDS011;41589;51.196;7.074;2023-05-01T07:29:08;0.80;;;0.80;;
19575;SDS011;41589;51.196;7.074;2023-05-01T07:34:09;0.80;;;0.80;;
19575;SDS011;41589;51.196;7.074;2023-05-01T07:39:09;0.90;;;0.90;;
19575;SDS011;41589;51.196;7.074;2023-05-01T07:44:10;0.83;;;0.80;;
19575;SDS011;41589;51.196;7.074;2023-05-01T07:49:10;0.93;;;0.87;;
19575;SDS011;41589;51.196;7.074;2023-05-01T07:54:10;0.70;;;0.70;;
19575;SDS011;41589;51.196;7.074;2023-05-01T07:59:14;0.60;;;0.60;;
19575;SDS011;41589;51.196;7.074;2023-05-01T08:04:14;0.67;;;0.67;;
19575;SDS011;41589;51.196;7.074;2023-05-01T08:09:16;0.90;;;0.90;;
19575;SDS011;41589;51.196;7.074;2023-05-01T08:14:16;0.80;;;0.80;;
19575;SDS011;41589;51.196;7.074;2023-05-01T08:19:17;0.83;;;0.83;;
19575;SDS011;41589;51.196;7.074;2023-05-01T08:24:17;0.70;;;0.70;;
19575;SDS011;41589;51.196;7.074;2023-05-01T08:29:18;0.77;;;0.77;;
19575;SDS011;41589;51.196;7.074;2023-05-01T08:34:18;0.63;;;0.63;;
19575;SDS011;41589;51.196;7.074;2023-05-01T08:39:19;0.73;;;0.73;;
19575;SDS011;41589;51.196;7.074;2023-05-01T08:44:19;0.60;;;0.60;;
19575;SDS011;41589;51.196;7.074;2023-05-01T08:49:19;0.70;;;0.70;;
19575;SDS011;41589;51.196;7.074;2023-05-01T08:54:21;0.70;;;0.70;;
19575;SDS011;41589;51.196;7.074;2023-05-01T08:59:22;0.70;;;0.60;;
19575;SDS011;41589;51.196;7.074;2023-05-01T09:04:24;0.70;;;0.70;;
19575;SDS011;41589;51.196;7.074;2023-05-01T09:09:25;0.60;;;0.60;;
19575;SDS011;41589;51.196;7.074;2023-05-01T09:14:27;0.70;;;0.70;;
19575;SDS011;41589;51.196;7.074;2023-05-01T09:19:29;0.80;;;0.80;;
19575;SDS011;41589;51.196;7.074;2023-05-01T09:24:30;1.00;;;0.90;;
19575;SDS011;41589;51.196;7.074;2023-05-01T09:29:37;0.60;;;0.60;;
19575;SDS011;41589;51.196;7.074;2023-05-01T09:34:38;0.80;;;0.80;;
19575;SDS011;41589;51.196;7.074;2023-05-01T09:39:38;1.00;;;1.00;;
19575;SDS011;41589;51.196;7.074;2023-05-01T09:44:40;0.63;;;0.63;;
19575;SDS011;41589;51.196;7.074;2023-05-01T09:49:45;1.17;;;0.70;;
19575;SDS011;41589;51.196;7.074;2023-05-01T09:54:49;0.83;;;0.83;;
19575;SDS011;41589;51.196;7.074;2023-05-01T10:00:00;0.70;;;0.70;;
19575;SDS011;41589;51.196;7.074;2023-05-01T10:05:08;0.73;;;0.73;;
19575;SDS011;41589;51.196;7.074;2023-05-01T10:10:19;0.60;;;0.60;;
19575;SDS011;41589;51.196;7.074;2023-05-01T10:15:22;0.47;;;0.47;;
19575;SDS011;41589;51.196;7.074;2023-05-01T10:20:35;0.70;;;0.70;;
19575;SDS011;41589;51.196;7.074;2023-05-01T10:25:36;0.70;;;0.70;;
19575;SDS011;41589;51.196;7.074;2023-05-01T10:30:38;0.60;;;0.60;;
19575;SDS011;41589;51.196;7.074;2023-05-01T10:35:39;0.47;;;0.47;;
19575;SDS011;41589;51.196;7.074;2023-05-01T10:40:47;0.60;;;0.60;;
19575;SDS011;41589;51.196;7.074;2023-05-01T10:45:48;0.60;;;0.60;;
19575;SDS011;41589;51.196;7.074;2023-05-01T11:01:35;0.50;;;0.50;;
19575;SDS011;41589;51.196;7.074;2023-05-01T11:06:38;0.77;;;0.53;;
19575;SDS011;41589;51.196;7.074;2023-05-01T11:12:07;0.60;;;0.60;;
19575;SDS011;41589;51.196;7.074;2023-05-01T11:17:12;0.80;;;0.80;;
19575;SDS011;41589;51.196;7.074;2023-05-01T11:22:38;0.40;;;0.40;;
19575;SDS011;41589;51.196;7.074;2023-05-01T11:27:39;0.50;;;0.50;;
19575;SDS011;41589;51.196;7.074;2023-05-01T11:32:45;0.60;;;0.60;;
19575;SDS011;41589;51.196;7.074;2023-05-01T11:37:47;0.53;;;0.50;;
19575;SDS011;41589;51.196;7.074;2023-05-01T11:42:50;0.40;;;0.40;;
19575;SDS011;41589;51.196;7.074;2023-05-01T11:47:59;0.40;;;0.40;;
19575;SDS011;41589;51.196;7.074;2023-05-01T11:53:02;0.73;;;0.60;;
19575;SDS011;41589;51.196;7.074;2023-05-01T11:58:03;0.60;;;0.60;;
19575;SDS011;41589;51.196;7.074;2023-05-01T12:03:04;1.00;;;0.67;;
19575;SDS011;41589;51.196;7.074;2023-05-01T12:13:08;0.50;;;0.50;;
19575;SDS011;41589;51.196;7.074;2023-05-01T12:18:10;0.50;;;0.50;;
19575;SDS011;41589;51.196;7.074;2023-05-01T12:23:12;0.63;;;0.63;;
19575;SDS011;41589;51.196;7.074;2023-05-01T12:28:15;0.50;;;0.50;;
19575;SDS011;41589;51.196;7.074;2023-05-01T12:33:19;0.60;;;0.60;;
19575;SDS011;41589;51.196;7.074;2023-05-01T12:38:21;0.50;;;0.50;;
19575;SDS011;41589;51.196;7.074;2023-05-01T12:43:29;0.60;;;0.60;;
19575;SDS011;41589;51.196;7.074;2023-05-01T12:48:32;0.50;;;0.50;;
19575;SDS011;41589;51.196;7.074;2023-05-01T12:53:33;0.60;;;0.60;;
19575;SDS011;41589;51.196;7.074;2023-05-01T12:58:34;0.70;;;0.70;;
19575;SDS011;41589;51.196;7.074;2023-05-01T13:03:41;0.60;;;0.60;;
19575;SDS011;41589;51.196;7.074;2023-05-01T13:08:42;0.70;;;0.70;;
19575;SDS011;41589;51.196;7.074;2023-05-01T13:13:44;1.00;;;0.87;;
19575;SDS011;41589;51.196;7.074;2023-05-01T13:18:46;0.50;;;0.50;;
19575;SDS011;41589;51.196;7.074;2023-05-01T13:23:54;0.67;;;0.67;;
19575;SDS011;41589;51.196;7.074;2023-05-01T13:29:03;0.87;;;0.70;;
19575;SDS011;41589;51.196;7.074;2023-05-01T13:34:04;0.93;;;0.60;;
19575;SDS011;41589;51.196;7.074;2023-05-01T13:39:09;0.70;;;0.70;;
19575;SDS011;41589;51.196;7.074;2023-05-01T13:44:10;0.60;;;0.60;;
19575;SDS011;41589;51.196;7.074;2023-05-01T13:49:12;0.50;;;0.50;;
19575;SDS011;41589;51.196;7.074;2023-05-01T13:54:19;0.60;;;0.60;;
19575;SDS011;41589;51.196;7.074;2023-05-01T13:59:20;0.80;;;0.80;;
19575;SDS011;41589;51.196;7.074;2023-05-01T14:04:20;0.70;;;0.70;;
19575;SDS011;41589;51.196;7.074;2023-05-01T14:09:22;0.70;;;0.70;;
19575;SDS011;41589;51.196;7.074;2023-05-01T14:14:43;0.60;;;0.60;;
19575;SDS011;41589;51.196;7.074;2023-05-01T14:19:51;0.60;;;0.60;;
19575;SDS011;41589;51.196;7.074;2023-05-01T14:25:23;0.60;;;0.60;;
19575;SDS011;41589;51.196;7.074;2023-05-01T14:30:34;0.70;;;0.70;;
19575;SDS011;41589;51.196;7.074;2023-05-01T14:41:21;0.50;;;0.50;;
19575;SDS011;41589;51.196;7.074;2023-05-01T14:46:36;0.70;;;0.70;;
19575;SDS011;41589;51.196;7.074;2023-05-01T14:51:55;1.53;;;0.70;;
19575;SDS011;41589;51.196;7.074;2023-05-01T14:56:59;0.60;;;0.60;;
19575;SDS011;41589;51.196;7.074;2023-05-01T15:02:05;0.60;;;0.60;;
19575;SDS011;41589;51.196;7.074;2023-05-01T15:07:11;0.80;;;0.80;;
19575;SDS011;41589;51.196;7.074;2023-05-01T15:12:41;0.60;;;0.60;;
19575;SDS011;41589;51.196;7.074;2023-05-01T15:17:51;0.90;;;0.90;;
19575;SDS011;41589;51.196;7.074;2023-05-01T15:23:02;1.27;;;0.80;;
19575;SDS011;41589;51.196;7.074;2023-05-01T15:28:14;1.00;;;1.00;;
19575;SDS011;41589;51.196;7.074;2023-05-01T15:33:15;0.90;;;0.90;;
19575;SDS011;41589;51.196;7.074;2023-05-01T15:38:21;0.83;;;0.83;;
19575;SDS011;41589;51.196;7.074;2023-05-01T15:43:22;0.90;;;0.90;;
19575;SDS011;41589;51.196;7.074;2023-05-01T15:48:30;1.07;;;1.03;;
19575;SDS011;41589;51.196;7.074;2023-05-01T15:53:39;0.80;;;0.80;;
19575;SDS011;41589;51.196;7.074;2023-05-01T15:58:39;1.03;;;1.03;;
19575;SDS011;41589;51.196;7.074;2023-05-01T16:03:46;0.97;;;0.97;;
19575;SDS011;41589;51.196;7.074;2023-05-01T16:08:47;1.40;;;1.30;;
19575;SDS011;41589;51.196;7.074;2023-05-01T16:13:48;1.43;;;1.33;;
19575;SDS011;41589;51.196;7.074;2023-05-01T16:18:52;1.10;;;1.10;;
19575;SDS011;41589;51.196;7.074;2023-05-01T16:23:56;1.10;;;1.10;;
19575;SDS011;41589;51.196;7.074;2023-05-01T16:28:57;1.37;;;1.27;;
19575;SDS011;41589;51.196;7.074;2023-05-01T16:34:04;1.00;;;1.00;;
19575;SDS011;41589;51.196;7.074;2023-05-01T16:39:15;1.10;;;1.00;;
19575;SDS011;41589;51.196;7.074;2023-05-01T16:44:22;1.00;;;1.00;;
19575;SDS011;41589;51.196;7.074;2023-05-01T16:49:23;0.90;;;0.90;;
19575;SDS011;41589;51.196;7.074;2023-05-01T16:54:26;1.10;;;0.93;;
19575;SDS011;41589;51.196;7.074;2023-05-01T16:59:35;1.07;;;1.00;;
19575;SDS011;41589;51.196;7.074;2023-05-01T17:04:36;0.97;;;0.97;;
19575;SDS011;41589;51.196;7.074;2023-05-01T17:09:38;1.10;;;1.10;;
19575;SDS011;41589;51.196;7.074;2023-05-01T17:14:44;1.07;;;1.07;;
19575;SDS011;41589;51.196;7.074;2023-05-01T17:19:48;1.20;;;1.20;;
19575;SDS011;41589;51.196;7.074;2023-05-01T17:24:51;0.90;;;0.90;;
19575;SDS011;41589;51.196;7.074;2023-05-01T17:30:04;1.00;;;1.00;;
19575;SDS011;41589;51.196;7.074;2023-05-01T17:35:11;1.10;;;1.10;;
19575;SDS011;41589;51.196;7.074;2023-05-01T17:40:12;1.00;;;1.00;;
19575;SDS011;41589;51.196;7.074;2023-05-01T17:45:13;0.80;;;0.80;;
19575;SDS011;41589;51.196;7.074;2023-05-01T17:50:17;0.93;;;0.93;;
19575;SDS011;41589;51.196;7.074;2023-05-01T17:55:25;0.87;;;0.87;;
19575;SDS011;41589;51.196;7.074;2023-05-01T18:00:33;0.80;;;0.80;;
19575;SDS011;41589;51.196;7.074;2023-05-01T18:05:36;1.20;;;1.20;;
19575;SDS011;41589;51.196;7.074;2023-05-01T18:10:44;0.97;;;0.97;;
19575;SDS011;41589;51.196;7.074;2023-05-01T18:15:49;1.00;;;1.00;;
19575;SDS011;41589;51.196;7.074;2023-05-01T18:21:13;0.93;;;0.93;;
19575;SDS011;41589;51.196;7.074;2023-05-01T18:26:21;1.00;;;1.00;;
19575;SDS011;41589;51.196;7.074;2023-05-01T18:42:49;1.00;;;1.00;;
19575;SDS011;41589;51.196;7.074;2023-05-01T18:47:55;1.13;;;1.03;;
19575;SDS011;41589;51.196;7.074;2023-05-01T18:52:59;1.07;;;1.07;;
19575;SDS011;41589;51.196;7.074;2023-05-01T18:58:05;1.13;;;1.10;;
19575;SDS011;41589;51.196;7.074;2023-05-01T19:03:09;1.10;;;1.10;;
19575;SDS011;41589;51.196;7.074;2023-05-01T19:08:24;1.30;;;1.30;;
19575;SDS011;41589;51.196;7.074;2023-05-01T19:13:26;1.00;;;1.00;;
19575;SDS011;41589;51.196;7.074;2023-05-01T19:18:32;1.07;;;1.07;;
19575;SDS011;41589;51.196;7.074;2023-05-01T19:23:36;1.00;;;1.00;;
19575;SDS011;41589;51.196;7.074;2023-05-01T19:28:42;0.80;;;0.80;;
19575;SDS011;41589;51.196;7.074;2023-05-01T19:33:47;1.03;;;1.03;;
19575;SDS011;41589;51.196;7.074;2023-05-01T19:38:52;1.10;;;1.10;;
19575;SDS011;41589;51.196;7.074;2023-05-01T19:43:54;1.10;;;1.10;;
19575;SDS011;41589;51.196;7.074;2023-05-01T19:48:55;1.20;;;1.10;;
19575;SDS011;41589;51.196;7.074;2023-05-01T19:54:14;1.10;;;1.10;;
19575;SDS011;41589;51.196;7.074;2023-05-01T19:59:16;1.10;;;1.10;;
19575;SDS011;41589;51.196;7.074;2023-05-01T20:04:17;1.03;;;1.03;;
19575;SDS011;41589;51.196;7.074;2023-05-01T20:09:17;1.70;;;1.60;;
19575;SDS011;41589;51.196;7.074;2023-05-01T20:14:18;1.10;;;1.10;;
19575;SDS011;41589;51.196;7.074;2023-05-01T20:19:18;1.17;;;1.17;;
19575;SDS011;41589;51.196;7.074;2023-05-01T20:24:19;1.13;;;1.03;;
19575;SDS011;41589;51.196;7.074;2023-05-01T20:29:21;1.30;;;1.20;;
19575;SDS011;41589;51.196;7.074;2023-05-01T20:34:21;1.50;;;1.50;;
19575;SDS011;41589;51.196;7.074;2023-05-01T20:39:22;1.40;;;1.40;;
19575;SDS011;41589;51.196;7.074;2023-05-01T20:44:22;1.10;;;1.10;;
19575;SDS011;41589;51.196;7.074;2023-05-01T20:49:23;1.63;;;1.53;;
19575;SDS011;41589;51.196;7.074;2023-05-01T20:54:23;1.40;;;1.40;;
19575;SDS011;41589;51.196;7.074;2023-05-01T20:59:23;1.60;;;1.50;;
19575;SDS011;41589;51.196;7.074;2023-05-01T21:04:24;1.40;;;1.40;;
19575;SDS011;41589;51.196;7.074;2023-05-01T21:09:24;1.50;;;1.50;;
19575;SDS011;41589;51.196;7.074;2023-05-01T21:14:27;1.50;;;1.50;;
19575;SDS011;41589;51.196;7.074;2023-05-01T21:19:28;1.70;;;1.60;;
19575;SDS011;41589;51.196;7.074;2023-05-01T21:24:30;1.83;;;1.73;;
19575;SDS011;41589;51.196;7.074;2023-05-01T21:29:30;1.93;;;1.83;;
19575;SDS011;41589;51.196;7.074;2023-05-01T21:34:31;1.80;;;1.70;;
19575;SDS011;41589;51.196;7.074;2023-05-01T21:39:31;1.93;;;1.83;;
19575;SDS011;41589;51.196;7.074;2023-05-01T21:44:32;1.90;;;1.80;;
19575;SDS011;41589;51.196;7.074;2023-05-01T21:49:32;1.80;;;1.80;;
19575;SDS011;41589;51.196;7.074;2023-05-01T21:54:33;1.90;;;1.80;;
19575;SDS011;41589;51.196;7.074;2023-05-01T21:59:35;2.30;;;2.20;;
19575;SDS011;41589;51.196;7.074;2023-05-01T22:04:37;2.00;;;1.90;;
19575;SDS011;41589;51.196;7.074;2023-05-01T22:09:38;2.40;;;2.30;;
19575;SDS011;41589;51.196;7.074;2023-05-01T22:14:38;2.50;;;2.40;;
19575;SDS011;41589;51.196;7.074;2023-05-01T22:19:39;2.60;;;2.50;;
19575;SDS011;41589;51.196;7.074;2023-05-01T22:24:39;2.30;;;2.20;;
19575;SDS011;41589;51.196;7.074;2023-05-01T22:29:39;2.40;;;2.30;;
19575;SDS011;41589;51.196;7.074;2023-05-01T22:34:40;2.40;;;2.30;;
19575;SDS011;41589;51.196;7.074;2023-05-01T22:39:41;2.87;;;2.77;;
19575;SDS011;41589;51.196;7.074;2023-05-01T22:44:41;2.23;;;2.13;;
19575;SDS011;41589;51.196;7.074;2023-05-01T22:49:41;2.70;;;2.60;;
19575;SDS011;41589;51.196;7.074;2023-05-01T22:54:42;2.97;;;2.87;;
19575;SDS011;41589;51.196;7.074;2023-05-01T22:59:42;3.03;;;2.83;;
19575;SDS011;41589;51.196;7.074;2023-05-01T23:04:44;2.67;;;2.57;;
19575;SDS011;41589;51.196;7.074;2023-05-01T23:09:45;3.00;;;2.90;;
19575;SDS011;41589;51.196;7.074;2023-05-01T23:14:46;3.00;;;2.90;;
19575;SDS011;41589;51.196;7.074;2023-05-01T23:19:47;3.03;;;2.93;;
19575;SDS011;41589;51.196;7.074;2023-05-01T23:24:47;2.80;;;2.70;;
19575;SDS011;41589;51.196;7.074;2023-05-01T23:29:50;2.77;;;2.67;;
19575;SDS011;41589;51.196;7.074;2023-05-01T23:34:54;3.23;;;3.03;;
19575;SDS011;41589;51.196;7.074;2023-05-01T23:39:58;2.80;;;2.70;;
19575;SDS011;41589;51.196;7.074;2023-05-01T23:44:58;2.77;;;2.67;;
19575;SDS011;41589;51.196;7.074;2023-05-01T23:49:59;3.10;;;3.00;;
19575;SDS011;41589;51.196;7.074;2023-05-01T23:55:00;3.77;;;3.57;;
